Search for airport 
image banner adimage banner adimage banner ad
image banner ad

CL82 - Los Robles Rgnl Medical Center

Located in Thousand Oaks, United States

ICAO - CL82, IATA -

Data provided by Airmate  

General information

Coordinates: N34°12'25" W118°52'59"
Elevation is 760 feet MSL.
Magnetic variation is 14° East
View others Airports in California

Operational data

Special qualification required
Current time UTC:
Current local time:
Weather at : KCMA - Camarillo ( 19 km )
METAR: KCMA 231550Z 25004KT 3SM HZ OVC002 17/14 A2993 RMK AO2
TAF: KCMA 231500Z 2315/2412 29004KT 3/4SM BR OVC003 FM231600 VRB03KT P6SM BKN006 FM231700 24009KT P6SM SKC FM240300 VRB03KT P6SM SKC FM240600 VRB03KT 6SM BR OVC007
View NOTAMs / SUP AIP / TFR affecting this airport [VIEW]
Communications frequencies: [VIEW]

Runways:

Airport contact information

Address: Thousand Oaks United States

Satellite view of CL82